Cincinnati, Ohio
Traffic Map
Current Weather Conditions
Cincinnati, Ohio
Overcast
Overcast
54°
Feels Like: 54°
Wind Chill: 54° Ceiling: 4400
Heat Index: 54° Visibility: 10mi
Dew Point: 40° Wind: 13mph
Humidity: 59% Direction: 340° (NNW)
Pressure: 30.05in Gusts: 0mph
Raw Report DataKLUK 211653Z 34011KT 10SM BKN044 OVC050 12/04 A3005 RMK AO2 SLP175 T01220044
Traffic Incident Summary
Active as of:
Severity:
Category:
InformationThere was an issue retrieving the traffic information for this location. Please try a different location or try again shortly.
Advertisements
Track Severe Weather on mobile